Pleasant Hill, Ohio
Current Conditions -  °F | °C
As of 9:56 PM on Saturday 22 Nov 2014 (Local Time) from KDAY Reporting Station
Broken Clouds Broken Clouds  
Wind Chill: 54°   Ceiling: 11000
Heat Index: 54°   Visibility: 10mi
Dew Point: 36°   Wind: 15mph
Humidity: 51%   Direction: 190°S
Pressure: 30.05"   Gusts: NA
Location:  40.05°N, 84.34°W
Report Text: KDAY 230256Z 19013KT 10SM SCT060 BKN110 12/02 A3005 RMK AO2 SLP178 T01220022 58005
Loading
Personal Weather Stations






























Interactive Weather Map New forecast layout! Learn more

10-Day Weather Forecast

Advertisements
Track Severe Weather on mobile